EG-0002 weather

Az Zaqaziq
Sharqia Governorate, Egypt

Public forecast

Using degrees Celsius for public forecast. Weather courtesy of forecast.io.

Closest aviation weather report (METAR) to Az Zaqaziq

Closest report is Cairo International Airport, 31.4 nm (58.2 km) SSW. Retrieved 2019/10/18 19:30 UTC (10 minutes ago):

HECA 181930Z 03009KT CAVOK 24/20 Q1018 NOSIG

Closest aviation forecast (TAF) to Az Zaqaziq

Closest forecast is Cairo International Airport, 31.4 nm (58.2 km) SSW. Retrieved 2019/10/18 18:43 UTC (57 minutes ago):

TAF HECA 181700Z 1818/1924 02009KT 9999 FEW025 TEMPO 1900/1906 VRB03KT 4000BR NSC